sensor_id;sensor_type;location;lat;lon;timestamp;temperature;humidity
52209;DHT22;38507;53.132;6.394;2022-12-16T00:02:18;-0.40;99.90
52209;DHT22;38507;53.132;6.394;2022-12-16T00:04:44;-0.40;99.90
52209;DHT22;38507;53.132;6.394;2022-12-16T00:07:09;-0.40;99.90
52209;DHT22;38507;53.132;6.394;2022-12-16T00:09:35;-0.40;99.90
52209;DHT22;38507;53.132;6.394;2022-12-16T00:12:01;-0.40;99.90
52209;DHT22;38507;53.132;6.394;2022-12-16T00:14:26;-0.40;99.90
52209;DHT22;38507;53.132;6.394;2022-12-16T00:16:53;-0.40;99.90
52209;DHT22;38507;53.132;6.394;2022-12-16T00:19:19;-0.40;99.90
52209;DHT22;38507;53.132;6.394;2022-12-16T00:21:44;-0.40;99.90
52209;DHT22;38507;53.132;6.394;2022-12-16T00:24:10;-0.50;99.90
52209;DHT22;38507;53.132;6.394;2022-12-16T00:26:36;-0.50;99.90
52209;DHT22;38507;53.132;6.394;2022-12-16T00:29:01;-0.50;99.90
52209;DHT22;38507;53.132;6.394;2022-12-16T00:31:30;-0.50;99.90
52209;DHT22;38507;53.132;6.394;2022-12-16T00:33:56;-0.50;99.90
52209;DHT22;38507;53.132;6.394;2022-12-16T00:36:22;-0.50;99.90
52209;DHT22;38507;53.132;6.394;2022-12-16T00:38:47;-0.50;99.90
52209;DHT22;38507;53.132;6.394;2022-12-16T00:41:13;-0.50;99.90
52209;DHT22;38507;53.132;6.394;2022-12-16T00:43:39;-0.50;99.90
52209;DHT22;38507;53.132;6.394;2022-12-16T00:46:04;-0.50;99.90
52209;DHT22;38507;53.132;6.394;2022-12-16T00:48:30;-0.50;99.90
52209;DHT22;38507;53.132;6.394;2022-12-16T00:50:55;-0.50;99.90
52209;DHT22;38507;53.132;6.394;2022-12-16T00:53:22;-0.50;99.90
52209;DHT22;38507;53.132;6.394;2022-12-16T00:55:49;-0.60;99.90
52209;DHT22;38507;53.132;6.394;2022-12-16T00:58:14;-0.60;99.90
52209;DHT22;38507;53.132;6.394;2022-12-16T01:00:41;-0.60;99.90
52209;DHT22;38507;53.132;6.394;2022-12-16T01:03:07;-0.60;99.90
52209;DHT22;38507;53.132;6.394;2022-12-16T01:05:32;-0.60;99.90
52209;DHT22;38507;53.132;6.394;2022-12-16T01:07:58;-0.60;99.90
52209;DHT22;38507;53.132;6.394;2022-12-16T01:10:24;-0.60;99.90
52209;DHT22;38507;53.132;6.394;2022-12-16T01:12:50;-0.70;99.90
52209;DHT22;38507;53.132;6.394;2022-12-16T01:15:16;-0.70;99.90
52209;DHT22;38507;53.132;6.394;2022-12-16T01:17:42;-0.70;99.90
52209;DHT22;38507;53.132;6.394;2022-12-16T01:20:09;-0.70;99.90
52209;DHT22;38507;53.132;6.394;2022-12-16T01:22:35;-0.70;99.90
52209;DHT22;38507;53.132;6.394;2022-12-16T01:25:01;-0.80;99.90
52209;DHT22;38507;53.132;6.394;2022-12-16T01:27:27;-0.80;99.90
52209;DHT22;38507;53.132;6.394;2022-12-16T01:29:53;-0.80;99.90
52209;DHT22;38507;53.132;6.394;2022-12-16T01:32:20;-0.80;99.90
52209;DHT22;38507;53.132;6.394;2022-12-16T01:34:52;-0.80;99.90
52209;DHT22;38507;53.132;6.394;2022-12-16T01:37:18;-0.70;99.90
52209;DHT22;38507;53.132;6.394;2022-12-16T01:39:45;-0.70;99.90
52209;DHT22;38507;53.132;6.394;2022-12-16T01:42:15;-0.70;99.90
52209;DHT22;38507;53.132;6.394;2022-12-16T01:44:46;-0.70;99.90
52209;DHT22;38507;53.132;6.394;2022-12-16T01:47:31;-0.60;99.90
52209;DHT22;38507;53.132;6.394;2022-12-16T01:50:04;-0.60;99.90
52209;DHT22;38507;53.132;6.394;2022-12-16T01:52:36;-0.60;99.90
52209;DHT22;38507;53.132;6.394;2022-12-16T01:55:08;-0.50;99.90
52209;DHT22;38507;53.132;6.394;2022-12-16T01:57:41;-0.50;99.90
52209;DHT22;38507;53.132;6.394;2022-12-16T02:00:09;-0.50;99.90
52209;DHT22;38507;53.132;6.394;2022-12-16T02:02:35;-0.50;99.90
52209;DHT22;38507;53.132;6.394;2022-12-16T02:05:02;-0.40;99.90
52209;DHT22;38507;53.132;6.394;2022-12-16T02:08:00;-0.40;99.90
52209;DHT22;38507;53.132;6.394;2022-12-16T02:16:15;-0.40;99.90
52209;DHT22;38507;53.132;6.394;2022-12-16T02:21:51;-0.30;99.90
52209;DHT22;38507;53.132;6.394;2022-12-16T02:38:17;-0.10;99.90
52209;DHT22;38507;53.132;6.394;2022-12-16T02:41:31;-0.10;99.90
52209;DHT22;38507;53.132;6.394;2022-12-16T02:44:08;0.00;99.90
52209;DHT22;38507;53.132;6.394;2022-12-16T02:46:39;0.00;99.90
52209;DHT22;38507;53.132;6.394;2022-12-16T02:49:07;0.10;99.90
52209;DHT22;38507;53.132;6.394;2022-12-16T02:51:37;0.10;99.90
52209;DHT22;38507;53.132;6.394;2022-12-16T02:54:04;0.10;99.90
52209;DHT22;38507;53.132;6.394;2022-12-16T03:01:44;0.20;99.90
52209;DHT22;38507;53.132;6.394;2022-12-16T03:06:45;0.30;99.90
52209;DHT22;38507;53.132;6.394;2022-12-16T03:09:14;0.30;99.90
52209;DHT22;38507;53.132;6.394;2022-12-16T03:11:43;0.30;99.90
52209;DHT22;38507;53.132;6.394;2022-12-16T03:14:14;0.30;99.90
52209;DHT22;38507;53.132;6.394;2022-12-16T03:16:42;0.30;99.90
52209;DHT22;38507;53.132;6.394;2022-12-16T03:19:09;0.30;99.90
52209;DHT22;38507;53.132;6.394;2022-12-16T03:21:56;0.30;99.90
52209;DHT22;38507;53.132;6.394;2022-12-16T03:24:25;0.30;99.90
52209;DHT22;38507;53.132;6.394;2022-12-16T03:27:23;0.30;99.90
52209;DHT22;38507;53.132;6.394;2022-12-16T03:29:58;0.30;99.90
52209;DHT22;38507;53.132;6.394;2022-12-16T03:35:22;0.30;99.90
52209;DHT22;38507;53.132;6.394;2022-12-16T03:37:49;0.30;99.90
52209;DHT22;38507;53.132;6.394;2022-12-16T03:40:16;0.30;99.90
52209;DHT22;38507;53.132;6.394;2022-12-16T03:42:42;0.30;99.90
52209;DHT22;38507;53.132;6.394;2022-12-16T03:45:14;0.30;99.90
52209;DHT22;38507;53.132;6.394;2022-12-16T03:47:41;0.30;99.90
52209;DHT22;38507;53.132;6.394;2022-12-16T03:50:07;0.30;99.90
52209;DHT22;38507;53.132;6.394;2022-12-16T03:52:33;0.30;99.90
52209;DHT22;38507;53.132;6.394;2022-12-16T03:54:59;0.30;99.90
52209;DHT22;38507;53.132;6.394;2022-12-16T03:57:25;0.30;99.90
52209;DHT22;38507;53.132;6.394;2022-12-16T03:59:51;0.30;99.90
52209;DHT22;38507;53.132;6.394;2022-12-16T04:02:17;0.30;99.90
52209;DHT22;38507;53.132;6.394;2022-12-16T04:04:42;0.30;99.90
52209;DHT22;38507;53.132;6.394;2022-12-16T04:07:08;0.30;99.90
52209;DHT22;38507;53.132;6.394;2022-12-16T04:09:49;0.40;99.90
52209;DHT22;38507;53.132;6.394;2022-12-16T04:12:15;0.40;99.90
52209;DHT22;38507;53.132;6.394;2022-12-16T04:14:59;0.40;99.90
52209;DHT22;38507;53.132;6.394;2022-12-16T04:17:43;0.40;99.90
52209;DHT22;38507;53.132;6.394;2022-12-16T04:20:31;0.50;99.90
52209;DHT22;38507;53.132;6.394;2022-12-16T04:23:16;0.50;99.90
52209;DHT22;38507;53.132;6.394;2022-12-16T04:26:01;0.50;99.90
52209;DHT22;38507;53.132;6.394;2022-12-16T04:28:27;0.60;99.90
52209;DHT22;38507;53.132;6.394;2022-12-16T04:30:52;0.60;99.90
52209;DHT22;38507;53.132;6.394;2022-12-16T04:33:18;1.20;99.90
52209;DHT22;38507;53.132;6.394;2022-12-16T04:36:03;0.60;99.90
52209;DHT22;38507;53.132;6.394;2022-12-16T04:38:47;0.70;99.90
52209;DHT22;38507;53.132;6.394;2022-12-16T04:41:32;0.70;99.90
52209;DHT22;38507;53.132;6.394;2022-12-16T04:44:16;0.70;99.90
52209;DHT22;38507;53.132;6.394;2022-12-16T04:47:00;0.70;99.90
52209;DHT22;38507;53.132;6.394;2022-12-16T04:49:45;0.70;99.90
52209;DHT22;38507;53.132;6.394;2022-12-16T04:52:29;0.70;99.90
52209;DHT22;38507;53.132;6.394;2022-12-16T04:55:13;0.70;99.90
52209;DHT22;38507;53.132;6.394;2022-12-16T04:57:59;0.70;99.90
52209;DHT22;38507;53.132;6.394;2022-12-16T05:00:45;0.70;99.90
52209;DHT22;38507;53.132;6.394;2022-12-16T05:03:30;0.70;99.90
52209;DHT22;38507;53.132;6.394;2022-12-16T05:06:15;0.70;99.90
52209;DHT22;38507;53.132;6.394;2022-12-16T05:09:00;0.70;99.90
52209;DHT22;38507;53.132;6.394;2022-12-16T05:11:44;0.70;99.90
52209;DHT22;38507;53.132;6.394;2022-12-16T05:14:28;0.80;99.90
52209;DHT22;38507;53.132;6.394;2022-12-16T05:17:13;1.40;99.90
52209;DHT22;38507;53.132;6.394;2022-12-16T05:19:57;0.70;99.90
52209;DHT22;38507;53.132;6.394;2022-12-16T05:22:42;0.70;99.90
52209;DHT22;38507;53.132;6.394;2022-12-16T05:25:26;0.70;99.90
52209;DHT22;38507;53.132;6.394;2022-12-16T05:28:10;0.70;99.90
52209;DHT22;38507;53.132;6.394;2022-12-16T05:30:54;0.70;99.90
52209;DHT22;38507;53.132;6.394;2022-12-16T05:33:39;0.70;99.90
52209;DHT22;38507;53.132;6.394;2022-12-16T05:36:23;0.70;99.90
52209;DHT22;38507;53.132;6.394;2022-12-16T05:39:07;0.70;99.90
52209;DHT22;38507;53.132;6.394;2022-12-16T05:41:51;0.70;99.90
52209;DHT22;38507;53.132;6.394;2022-12-16T05:44:35;0.70;99.90
52209;DHT22;38507;53.132;6.394;2022-12-16T05:47:20;0.70;99.90
52209;DHT22;38507;53.132;6.394;2022-12-16T05:50:05;0.70;99.90
52209;DHT22;38507;53.132;6.394;2022-12-16T05:52:50;0.70;99.90
52209;DHT22;38507;53.132;6.394;2022-12-16T05:55:35;0.70;99.90
52209;DHT22;38507;53.132;6.394;2022-12-16T05:58:20;0.70;99.90
52209;DHT22;38507;53.132;6.394;2022-12-16T06:01:05;0.70;99.90
52209;DHT22;38507;53.132;6.394;2022-12-16T06:03:49;0.70;99.90
52209;DHT22;38507;53.132;6.394;2022-12-16T06:06:33;0.70;99.90
52209;DHT22;38507;53.132;6.394;2022-12-16T06:09:18;0.60;99.90
52209;DHT22;38507;53.132;6.394;2022-12-16T06:12:03;0.60;99.90
52209;DHT22;38507;53.132;6.394;2022-12-16T06:14:47;0.60;99.90
52209;DHT22;38507;53.132;6.394;2022-12-16T06:17:31;0.60;99.90
52209;DHT22;38507;53.132;6.394;2022-12-16T06:20:16;0.60;99.90
52209;DHT22;38507;53.132;6.394;2022-12-16T06:23:00;0.60;99.90
52209;DHT22;38507;53.132;6.394;2022-12-16T06:25:44;0.60;99.90
52209;DHT22;38507;53.132;6.394;2022-12-16T06:28:28;0.60;99.90
52209;DHT22;38507;53.132;6.394;2022-12-16T06:31:13;0.60;99.90
52209;DHT22;38507;53.132;6.394;2022-12-16T06:33:57;0.60;99.90
52209;DHT22;38507;53.132;6.394;2022-12-16T06:36:42;0.60;99.90
52209;DHT22;38507;53.132;6.394;2022-12-16T06:39:26;0.60;99.90
52209;DHT22;38507;53.132;6.394;2022-12-16T06:42:10;0.60;99.90
52209;DHT22;38507;53.132;6.394;2022-12-16T06:44:54;0.60;99.90
52209;DHT22;38507;53.132;6.394;2022-12-16T06:47:39;0.60;99.90
52209;DHT22;38507;53.132;6.394;2022-12-16T06:50:25;0.60;99.90
52209;DHT22;38507;53.132;6.394;2022-12-16T06:53:09;0.60;99.90
52209;DHT22;38507;53.132;6.394;2022-12-16T06:55:53;0.60;99.90
52209;DHT22;38507;53.132;6.394;2022-12-16T06:58:38;0.60;99.90
52209;DHT22;38507;53.132;6.394;2022-12-16T07:01:22;0.60;99.90
52209;DHT22;38507;53.132;6.394;2022-12-16T07:04:06;0.60;99.90
52209;DHT22;38507;53.132;6.394;2022-12-16T07:06:50;0.60;99.90
52209;DHT22;38507;53.132;6.394;2022-12-16T07:09:35;0.60;99.90
52209;DHT22;38507;53.132;6.394;2022-12-16T07:12:19;0.60;99.90
52209;DHT22;38507;53.132;6.394;2022-12-16T07:15:04;0.60;99.90
52209;DHT22;38507;53.132;6.394;2022-12-16T07:17:49;0.60;99.90
52209;DHT22;38507;53.132;6.394;2022-12-16T07:20:33;0.60;99.90
52209;DHT22;38507;53.132;6.394;2022-12-16T07:23:17;0.60;99.90
52209;DHT22;38507;53.132;6.394;2022-12-16T07:26:02;0.60;99.90
52209;DHT22;38507;53.132;6.394;2022-12-16T07:28:46;0.60;99.90
52209;DHT22;38507;53.132;6.394;2022-12-16T07:31:30;0.60;99.90
52209;DHT22;38507;53.132;6.394;2022-12-16T07:34:15;0.60;99.90
52209;DHT22;38507;53.132;6.394;2022-12-16T07:36:59;0.60;99.90
52209;DHT22;38507;53.132;6.394;2022-12-16T07:39:43;0.60;99.90
52209;DHT22;38507;53.132;6.394;2022-12-16T07:42:28;0.60;99.90
52209;DHT22;38507;53.132;6.394;2022-12-16T07:45:12;0.50;99.90
52209;DHT22;38507;53.132;6.394;2022-12-16T07:47:56;0.50;99.90
52209;DHT22;38507;53.132;6.394;2022-12-16T07:50:41;0.50;99.90
52209;DHT22;38507;53.132;6.394;2022-12-16T07:53:25;0.50;99.90
52209;DHT22;38507;53.132;6.394;2022-12-16T07:56:09;0.50;99.90
52209;DHT22;38507;53.132;6.394;2022-12-16T07:58:54;0.50;99.90
52209;DHT22;38507;53.132;6.394;2022-12-16T08:01:38;0.50;99.90
52209;DHT22;38507;53.132;6.394;2022-12-16T08:04:22;0.50;99.90
52209;DHT22;38507;53.132;6.394;2022-12-16T08:07:07;0.50;99.90
52209;DHT22;38507;53.132;6.394;2022-12-16T08:09:51;0.50;99.90
52209;DHT22;38507;53.132;6.394;2022-12-16T08:12:35;0.50;99.90
52209;DHT22;38507;53.132;6.394;2022-12-16T08:15:20;0.50;99.90
52209;DHT22;38507;53.132;6.394;2022-12-16T08:18:04;0.50;99.90
52209;DHT22;38507;53.132;6.394;2022-12-16T08:20:48;0.50;99.90
52209;DHT22;38507;53.132;6.394;2022-12-16T08:23:33;0.50;99.90
52209;DHT22;38507;53.132;6.394;2022-12-16T08:26:17;0.50;99.90
52209;DHT22;38507;53.132;6.394;2022-12-16T08:29:02;0.50;99.90
52209;DHT22;38507;53.132;6.394;2022-12-16T08:31:46;0.50;99.90
52209;DHT22;38507;53.132;6.394;2022-12-16T08:34:30;0.50;99.90
52209;DHT22;38507;53.132;6.394;2022-12-16T08:37:14;0.50;99.90
52209;DHT22;38507;53.132;6.394;2022-12-16T08:39:59;0.50;99.90
52209;DHT22;38507;53.132;6.394;2022-12-16T08:42:43;0.50;99.90
52209;DHT22;38507;53.132;6.394;2022-12-16T08:45:27;0.60;99.90
52209;DHT22;38507;53.132;6.394;2022-12-16T08:48:12;0.60;99.90
52209;DHT22;38507;53.132;6.394;2022-12-16T08:51:01;0.60;99.90
52209;DHT22;38507;53.132;6.394;2022-12-16T08:53:46;0.60;99.90
52209;DHT22;38507;53.132;6.394;2022-12-16T08:56:30;0.50;99.90
52209;DHT22;38507;53.132;6.394;2022-12-16T08:59:14;0.60;99.90
52209;DHT22;38507;53.132;6.394;2022-12-16T09:01:58;0.60;99.90
52209;DHT22;38507;53.132;6.394;2022-12-16T09:04:43;0.60;99.90
52209;DHT22;38507;53.132;6.394;2022-12-16T09:07:27;0.60;99.90
52209;DHT22;38507;53.132;6.394;2022-12-16T09:10:11;0.60;99.90
52209;DHT22;38507;53.132;6.394;2022-12-16T09:13:07;1.10;99.90
52209;DHT22;38507;53.132;6.394;2022-12-16T09:15:52;0.60;99.90
52209;DHT22;38507;53.132;6.394;2022-12-16T09:18:36;0.60;99.90
52209;DHT22;38507;53.132;6.394;2022-12-16T09:21:20;0.60;99.90
52209;DHT22;38507;53.132;6.394;2022-12-16T09:24:05;0.60;99.90
52209;DHT22;38507;53.132;6.394;2022-12-16T09:26:49;0.60;99.90
52209;DHT22;38507;53.132;6.394;2022-12-16T09:29:33;0.60;99.90
52209;DHT22;38507;53.132;6.394;2022-12-16T09:32:17;0.60;99.90
52209;DHT22;38507;53.132;6.394;2022-12-16T09:35:02;0.60;99.90
52209;DHT22;38507;53.132;6.394;2022-12-16T09:37:47;0.60;99.90
52209;DHT22;38507;53.132;6.394;2022-12-16T09:40:32;0.60;99.90
52209;DHT22;38507;53.132;6.394;2022-12-16T09:46:51;0.60;99.90
52209;DHT22;38507;53.132;6.394;2022-12-16T09:49:48;0.60;99.90
52209;DHT22;38507;53.132;6.394;2022-12-16T09:52:49;0.60;99.90
52209;DHT22;38507;53.132;6.394;2022-12-16T09:55:43;0.60;99.90
52209;DHT22;38507;53.132;6.394;2022-12-16T09:58:34;0.60;99.90
52209;DHT22;38507;53.132;6.394;2022-12-16T10:01:19;0.60;99.90
52209;DHT22;38507;53.132;6.394;2022-12-16T10:04:06;0.60;99.90
52209;DHT22;38507;53.132;6.394;2022-12-16T10:07:07;0.60;99.90
52209;DHT22;38507;53.132;6.394;2022-12-16T10:13:14;0.60;99.90
52209;DHT22;38507;53.132;6.394;2022-12-16T10:19:06;0.60;99.90
52209;DHT22;38507;53.132;6.394;2022-12-16T10:22:19;0.60;99.90
52209;DHT22;38507;53.132;6.394;2022-12-16T10:25:07;0.60;99.90
52209;DHT22;38507;53.132;6.394;2022-12-16T10:30:58;0.60;99.90
52209;DHT22;38507;53.132;6.394;2022-12-16T10:33:45;0.70;99.90
52209;DHT22;38507;53.132;6.394;2022-12-16T10:36:31;0.60;99.90
52209;DHT22;38507;53.132;6.394;2022-12-16T10:39:39;0.60;99.90
52209;DHT22;38507;53.132;6.394;2022-12-16T10:42:31;0.60;99.90
52209;DHT22;38507;53.132;6.394;2022-12-16T10:48:28;0.60;99.90
52209;DHT22;38507;53.132;6.394;2022-12-16T10:51:18;0.60;99.90
52209;DHT22;38507;53.132;6.394;2022-12-16T10:57:21;0.60;99.90
52209;DHT22;38507;53.132;6.394;2022-12-16T11:00:09;0.70;99.90
52209;DHT22;38507;53.132;6.394;2022-12-16T11:02:53;0.70;99.90
52209;DHT22;38507;53.132;6.394;2022-12-16T11:05:37;0.70;99.90
52209;DHT22;38507;53.132;6.394;2022-12-16T11:08:25;0.70;99.90
52209;DHT22;38507;53.132;6.394;2022-12-16T11:11:29;0.60;99.90
52209;DHT22;38507;53.132;6.394;2022-12-16T11:14:25;0.70;99.90
52209;DHT22;38507;53.132;6.394;2022-12-16T11:17:24;1.90;99.90
52209;DHT22;38507;53.132;6.394;2022-12-16T11:26:08;0.70;99.90
52209;DHT22;38507;53.132;6.394;2022-12-16T11:29:12;0.70;99.90
52209;DHT22;38507;53.132;6.394;2022-12-16T11:32:05;0.70;99.90
52209;DHT22;38507;53.132;6.394;2022-12-16T11:34:54;0.70;99.90
52209;DHT22;38507;53.132;6.394;2022-12-16T11:37:39;0.70;99.90
52209;DHT22;38507;53.132;6.394;2022-12-16T11:40:25;0.70;99.90
52209;DHT22;38507;53.132;6.394;2022-12-16T11:43:11;0.70;99.90
52209;DHT22;38507;53.132;6.394;2022-12-16T11:45:57;0.70;99.90
52209;DHT22;38507;53.132;6.394;2022-12-16T11:48:50;0.70;99.90
52209;DHT22;38507;53.132;6.394;2022-12-16T11:51:36;0.70;99.90
52209;DHT22;38507;53.132;6.394;2022-12-16T11:54:26;0.70;99.90
52209;DHT22;38507;53.132;6.394;2022-12-16T11:57:42;0.70;99.90
52209;DHT22;38507;53.132;6.394;2022-12-16T12:00:28;0.70;99.90
52209;DHT22;38507;53.132;6.394;2022-12-16T12:03:20;0.70;99.90
52209;DHT22;38507;53.132;6.394;2022-12-16T12:06:15;0.80;99.90
52209;DHT22;38507;53.132;6.394;2022-12-16T12:09:15;0.80;99.90
52209;DHT22;38507;53.132;6.394;2022-12-16T12:14:59;0.80;99.90
52209;DHT22;38507;53.132;6.394;2022-12-16T12:18:00;0.80;99.90
52209;DHT22;38507;53.132;6.394;2022-12-16T12:24:03;1.10;99.90
52209;DHT22;38507;53.132;6.394;2022-12-16T12:39:14;0.90;99.90
52209;DHT22;38507;53.132;6.394;2022-12-16T12:48:47;0.90;99.90
52209;DHT22;38507;53.132;6.394;2022-12-16T12:54:59;0.90;99.90
52209;DHT22;38507;53.132;6.394;2022-12-16T12:57:55;1.00;99.90
52209;DHT22;38507;53.132;6.394;2022-12-16T13:00:47;1.00;99.90
52209;DHT22;38507;53.132;6.394;2022-12-16T13:03:41;1.00;99.90
52209;DHT22;38507;53.132;6.394;2022-12-16T13:06:27;1.00;99.90
52209;DHT22;38507;53.132;6.394;2022-12-16T13:09:29;1.00;99.90
52209;DHT22;38507;53.132;6.394;2022-12-16T13:18:28;0.90;99.90
52209;DHT22;38507;53.132;6.394;2022-12-16T13:24:39;0.90;99.90
52209;DHT22;38507;53.132;6.394;2022-12-16T13:27:24;0.90;99.90
52209;DHT22;38507;53.132;6.394;2022-12-16T13:33:02;1.00;99.90
52209;DHT22;38507;53.132;6.394;2022-12-16T13:35:58;1.00;99.90
52209;DHT22;38507;53.132;6.394;2022-12-16T13:38:52;1.00;99.90
52209;DHT22;38507;53.132;6.394;2022-12-16T13:50:39;1.00;99.90
52209;DHT22;38507;53.132;6.394;2022-12-16T13:53:26;1.00;99.90
52209;DHT22;38507;53.132;6.394;2022-12-16T13:56:13;1.00;99.90
52209;DHT22;38507;53.132;6.394;2022-12-16T13:59:00;1.00;99.90
52209;DHT22;38507;53.132;6.394;2022-12-16T14:01:56;1.00;99.90
52209;DHT22;38507;53.132;6.394;2022-12-16T14:04:51;1.00;99.90
52209;DHT22;38507;53.132;6.394;2022-12-16T14:07:38;1.00;99.90
52209;DHT22;38507;53.132;6.394;2022-12-16T14:10:29;1.00;99.90
52209;DHT22;38507;53.132;6.394;2022-12-16T14:25:20;1.00;99.90
52209;DHT22;38507;53.132;6.394;2022-12-16T14:28:27;1.00;99.90
52209;DHT22;38507;53.132;6.394;2022-12-16T14:31:39;0.90;99.90
52209;DHT22;38507;53.132;6.394;2022-12-16T14:34:36;0.90;99.90
52209;DHT22;38507;53.132;6.394;2022-12-16T14:37:36;0.90;99.90
52209;DHT22;38507;53.132;6.394;2022-12-16T14:40:38;0.90;99.90
52209;DHT22;38507;53.132;6.394;2022-12-16T14:43:24;0.90;99.90
52209;DHT22;38507;53.132;6.394;2022-12-16T14:46:32;0.90;99.90
52209;DHT22;38507;53.132;6.394;2022-12-16T14:49:24;0.90;99.90
52209;DHT22;38507;53.132;6.394;2022-12-16T14:52:22;0.90;99.90
52209;DHT22;38507;53.132;6.394;2022-12-16T14:58:15;0.90;99.90
52209;DHT22;38507;53.132;6.394;2022-12-16T15:01:03;0.80;99.90
52209;DHT22;38507;53.132;6.394;2022-12-16T15:03:48;0.80;99.90
52209;DHT22;38507;53.132;6.394;2022-12-16T15:06:42;0.80;99.90
52209;DHT22;38507;53.132;6.394;2022-12-16T15:09:39;0.80;99.90
52209;DHT22;38507;53.132;6.394;2022-12-16T15:12:26;0.80;99.90
52209;DHT22;38507;53.132;6.394;2022-12-16T15:15:33;0.80;99.90
52209;DHT22;38507;53.132;6.394;2022-12-16T15:18:22;0.80;99.90
52209;DHT22;38507;53.132;6.394;2022-12-16T15:21:07;0.80;99.90
52209;DHT22;38507;53.132;6.394;2022-12-16T15:23:52;0.80;99.90
52209;DHT22;38507;53.132;6.394;2022-12-16T15:26:36;0.80;99.90
52209;DHT22;38507;53.132;6.394;2022-12-16T15:41:03;0.70;99.90
52209;DHT22;38507;53.132;6.394;2022-12-16T15:43:48;0.70;99.90
52209;DHT22;38507;53.132;6.394;2022-12-16T15:46:33;0.70;99.90
52209;DHT22;38507;53.132;6.394;2022-12-16T15:49:19;0.70;99.90
52209;DHT22;38507;53.132;6.394;2022-12-16T15:52:39;0.70;99.90
52209;DHT22;38507;53.132;6.394;2022-12-16T15:55:29;0.70;99.90
52209;DHT22;38507;53.132;6.394;2022-12-16T16:01:05;0.70;99.90
52209;DHT22;38507;53.132;6.394;2022-12-16T16:03:52;0.60;99.90
52209;DHT22;38507;53.132;6.394;2022-12-16T16:06:57;0.60;99.90
52209;DHT22;38507;53.132;6.394;2022-12-16T16:09:41;0.60;99.90
52209;DHT22;38507;53.132;6.394;2022-12-16T16:12:25;0.60;99.90
52209;DHT22;38507;53.132;6.394;2022-12-16T16:15:11;0.60;99.90
52209;DHT22;38507;53.132;6.394;2022-12-16T16:18:02;1.20;99.90
52209;DHT22;38507;53.132;6.394;2022-12-16T16:20:48;0.60;99.90
52209;DHT22;38507;53.132;6.394;2022-12-16T16:23:32;0.50;99.90
52209;DHT22;38507;53.132;6.394;2022-12-16T16:26:19;0.50;99.90
52209;DHT22;38507;53.132;6.394;2022-12-16T16:29:04;0.50;99.90
52209;DHT22;38507;53.132;6.394;2022-12-16T16:31:48;0.50;99.90
52209;DHT22;38507;53.132;6.394;2022-12-16T16:34:32;0.50;99.90
52209;DHT22;38507;53.132;6.394;2022-12-16T16:37:19;0.50;99.90
52209;DHT22;38507;53.132;6.394;2022-12-16T16:40:25;0.50;99.90
52209;DHT22;38507;53.132;6.394;2022-12-16T16:43:11;0.50;99.90
52209;DHT22;38507;53.132;6.394;2022-12-16T16:45:56;0.50;99.90
52209;DHT22;38507;53.132;6.394;2022-12-16T16:48:40;0.50;99.90
52209;DHT22;38507;53.132;6.394;2022-12-16T16:51:25;0.50;99.90
52209;DHT22;38507;53.132;6.394;2022-12-16T16:54:10;0.50;99.90
52209;DHT22;38507;53.132;6.394;2022-12-16T16:56:54;0.40;99.90
52209;DHT22;38507;53.132;6.394;2022-12-16T16:59:38;0.40;99.90
52209;DHT22;38507;53.132;6.394;2022-12-16T17:02:23;0.40;99.90
52209;DHT22;38507;53.132;6.394;2022-12-16T17:05:11;0.30;99.90
52209;DHT22;38507;53.132;6.394;2022-12-16T17:07:56;0.30;99.90
52209;DHT22;38507;53.132;6.394;2022-12-16T17:10:40;0.30;99.90
52209;DHT22;38507;53.132;6.394;2022-12-16T17:13:24;0.30;99.90
52209;DHT22;38507;53.132;6.394;2022-12-16T17:16:10;0.30;99.90
52209;DHT22;38507;53.132;6.394;2022-12-16T17:18:55;0.40;99.90
52209;DHT22;38507;53.132;6.394;2022-12-16T17:21:39;0.30;99.90
52209;DHT22;38507;53.132;6.394;2022-12-16T17:24:24;0.30;99.90
52209;DHT22;38507;53.132;6.394;2022-12-16T17:27:16;0.30;99.90
52209;DHT22;38507;53.132;6.394;2022-12-16T17:30:02;0.30;99.90
52209;DHT22;38507;53.132;6.394;2022-12-16T17:32:46;0.40;99.90
52209;DHT22;38507;53.132;6.394;2022-12-16T17:35:31;0.30;99.90
52209;DHT22;38507;53.132;6.394;2022-12-16T17:38:15;0.20;99.90
52209;DHT22;38507;53.132;6.394;2022-12-16T17:40:59;0.20;99.90
52209;DHT22;38507;53.132;6.394;2022-12-16T17:43:44;0.20;99.90
52209;DHT22;38507;53.132;6.394;2022-12-16T17:46:28;0.20;99.90
52209;DHT22;38507;53.132;6.394;2022-12-16T17:49:12;0.20;99.90
52209;DHT22;38507;53.132;6.394;2022-12-16T17:51:56;0.20;99.90
52209;DHT22;38507;53.132;6.394;2022-12-16T17:54:41;0.20;99.90
52209;DHT22;38507;53.132;6.394;2022-12-16T17:57:25;0.20;99.90
52209;DHT22;38507;53.132;6.394;2022-12-16T18:00:10;0.20;99.90
52209;DHT22;38507;53.132;6.394;2022-12-16T18:02:54;0.10;99.90
52209;DHT22;38507;53.132;6.394;2022-12-16T18:05:38;0.10;99.90
52209;DHT22;38507;53.132;6.394;2022-12-16T18:08:23;0.10;99.90
52209;DHT22;38507;53.132;6.394;2022-12-16T18:11:07;0.20;99.90
52209;DHT22;38507;53.132;6.394;2022-12-16T18:13:51;0.10;99.90
52209;DHT22;38507;53.132;6.394;2022-12-16T18:16:35;0.10;99.90
52209;DHT22;38507;53.132;6.394;2022-12-16T18:19:20;0.10;99.90
52209;DHT22;38507;53.132;6.394;2022-12-16T18:22:04;0.10;99.90
52209;DHT22;38507;53.132;6.394;2022-12-16T18:24:48;0.10;99.90
52209;DHT22;38507;53.132;6.394;2022-12-16T18:27:34;0.10;99.90
52209;DHT22;38507;53.132;6.394;2022-12-16T18:30:19;0.00;99.90
52209;DHT22;38507;53.132;6.394;2022-12-16T18:33:03;0.00;99.90
52209;DHT22;38507;53.132;6.394;2022-12-16T18:35:47;0.00;99.90
52209;DHT22;38507;53.132;6.394;2022-12-16T18:38:31;0.00;99.90
52209;DHT22;38507;53.132;6.394;2022-12-16T18:41:18;0.00;99.90
52209;DHT22;38507;53.132;6.394;2022-12-16T18:44:04;0.00;99.90
52209;DHT22;38507;53.132;6.394;2022-12-16T18:46:48;-0.10;99.90
52209;DHT22;38507;53.132;6.394;2022-12-16T18:49:40;-0.10;99.90
52209;DHT22;38507;53.132;6.394;2022-12-16T18:52:25;-0.10;99.90
52209;DHT22;38507;53.132;6.394;2022-12-16T18:55:09;-0.20;99.90
52209;DHT22;38507;53.132;6.394;2022-12-16T18:57:53;-0.20;99.90
52209;DHT22;38507;53.132;6.394;2022-12-16T19:00:37;-0.20;99.90
52209;DHT22;38507;53.132;6.394;2022-12-16T19:03:22;-0.20;99.90
52209;DHT22;38507;53.132;6.394;2022-12-16T19:06:06;0.00;99.90
52209;DHT22;38507;53.132;6.394;2022-12-16T19:08:51;-0.30;99.90
52209;DHT22;38507;53.132;6.394;2022-12-16T19:11:35;-0.30;99.90
52209;DHT22;38507;53.132;6.394;2022-12-16T19:14:19;-0.40;99.90
52209;DHT22;38507;53.132;6.394;2022-12-16T19:17:03;-0.40;99.90
52209;DHT22;38507;53.132;6.394;2022-12-16T19:19:47;-0.50;99.90
52209;DHT22;38507;53.132;6.394;2022-12-16T19:22:31;-0.40;99.90
52209;DHT22;38507;53.132;6.394;2022-12-16T19:25:15;-0.50;99.90
52209;DHT22;38507;53.132;6.394;2022-12-16T19:27:59;-0.50;99.90
52209;DHT22;38507;53.132;6.394;2022-12-16T19:30:53;-0.60;99.90
52209;DHT22;38507;53.132;6.394;2022-12-16T19:33:37;-0.50;99.90
52209;DHT22;38507;53.132;6.394;2022-12-16T19:36:22;-0.60;99.90
52209;DHT22;38507;53.132;6.394;2022-12-16T19:39:06;-0.60;99.90
52209;DHT22;38507;53.132;6.394;2022-12-16T19:41:50;-0.60;99.90